createdAt,value
2022-10-05T00:01:31.323Z,82.50
2022-10-05T00:04:22.239Z,81.58
2022-10-05T00:07:17.222Z,82.18
2022-10-05T00:09:50.412Z,81.83
2022-10-05T00:12:21.169Z,81.73
2022-10-05T00:14:53.387Z,81.50
2022-10-05T00:17:30.841Z,81.61
2022-10-05T00:19:57.786Z,82.18
2022-10-05T00:22:32.911Z,81.67
2022-10-05T00:25:10.417Z,81.06
2022-10-05T00:27:38.813Z,81.73
2022-10-05T00:30:19.892Z,81.54
2022-10-05T00:32:47.226Z,81.79
2022-10-05T00:35:16.937Z,81.46
2022-10-05T00:37:45.336Z,81.25
2022-10-05T00:40:33.607Z,81.62
2022-10-05T00:43:20.005Z,81.46
2022-10-05T00:46:22.568Z,81.82
2022-10-05T00:49:49.913Z,81.92
2022-10-05T00:52:36.617Z,81.58
2022-10-05T00:55:56.662Z,81.77
2022-10-05T00:58:57.813Z,81.22
2022-10-05T01:02:02.711Z,81.10
2022-10-05T01:05:12.312Z,80.93
2022-10-05T01:08:12.313Z,82.31
2022-10-05T01:11:09.902Z,82.40
2022-10-05T01:14:17.588Z,81.79
2022-10-05T01:16:58.029Z,81.42
2022-10-05T01:20:06.287Z,81.83
2022-10-05T01:23:22.754Z,81.50
2022-10-05T01:26:24.876Z,82.22
2022-10-05T01:29:40.838Z,81.69
2022-10-05T01:32:41.740Z,80.78
2022-10-05T01:36:02.926Z,82.13
2022-10-05T01:39:09.059Z,81.75
2022-10-05T01:42:09.223Z,81.94
2022-10-05T01:45:18.270Z,82.20
2022-10-05T01:47:58.567Z,81.32
2022-10-05T01:51:11.284Z,81.21
2022-10-05T01:54:39.899Z,81.88
2022-10-05T01:57:50.338Z,82.56
2022-10-05T02:00:19.476Z,83.01
2022-10-05T02:03:19.806Z,82.71
2022-10-05T02:06:04.850Z,82.32
2022-10-05T02:09:01.174Z,82.50
2022-10-05T02:11:28.223Z,82.79
2022-10-05T02:14:08.469Z,82.60
2022-10-05T02:16:48.664Z,82.58
2022-10-05T02:19:41.426Z,82.81
2022-10-05T02:22:49.003Z,82.16
2022-10-05T02:25:34.943Z,82.61
2022-10-05T02:28:14.016Z,83.49
2022-10-05T02:30:55.410Z,82.58
2022-10-05T02:33:32.783Z,83.25
2022-10-05T02:36:34.708Z,81.65
2022-10-05T02:39:31.470Z,81.94
2022-10-05T02:42:49.707Z,82.09
2022-10-05T02:45:27.395Z,82.09
2022-10-05T02:48:14.270Z,82.70
2022-10-05T02:51:22.183Z,82.89
2022-10-05T02:54:30.970Z,82.72
2022-10-05T02:57:21.239Z,82.04
2022-10-05T03:00:10.219Z,82.34
2022-10-05T03:03:06.486Z,82.75
2022-10-05T03:06:00.218Z,82.11
2022-10-05T03:09:05.204Z,81.36
2022-10-05T03:11:48.755Z,81.90
2022-10-05T03:14:53.688Z,82.88
2022-10-05T03:17:28.293Z,82.77
2022-10-05T03:20:17.265Z,83.18
2022-10-05T03:23:02.701Z,82.75
2022-10-05T03:26:06.418Z,83.29
2022-10-05T03:28:48.575Z,83.30
2022-10-05T03:31:27.346Z,82.78
2022-10-05T03:34:33.149Z,82.42
2022-10-05T03:37:34.905Z,82.67
2022-10-05T03:40:34.664Z,82.46
2022-10-05T03:44:17.069Z,83.29
2022-10-05T03:47:33.742Z,82.96
2022-10-05T03:50:42.299Z,83.48
2022-10-05T03:53:29.779Z,83.56
2022-10-05T03:56:29.869Z,83.68
2022-10-05T03:59:12.994Z,83.62
2022-10-05T04:01:57.831Z,84.07
2022-10-05T04:04:38.930Z,84.82
2022-10-05T04:07:14.971Z,84.47
2022-10-05T04:09:46.730Z,83.31
2022-10-05T04:12:32.956Z,83.43
2022-10-05T04:15:42.168Z,83.59
2022-10-05T04:18:25.599Z,83.30
2022-10-05T04:21:02.023Z,83.88
2022-10-05T04:24:31.079Z,84.43
2022-10-05T04:27:03.299Z,84.33
2022-10-05T04:29:44.913Z,84.80
2022-10-05T04:32:36.230Z,83.89
2022-10-05T04:35:38.185Z,83.85
2022-10-05T04:38:52.549Z,83.56
2022-10-05T04:42:03.146Z,83.20
2022-10-05T04:45:02.718Z,83.54
2022-10-05T04:48:09.568Z,83.04
2022-10-05T04:51:04.083Z,83.19
2022-10-05T04:53:50.453Z,83.06
2022-10-05T04:56:33.779Z,83.56
2022-10-05T04:59:37.349Z,82.99
2022-10-05T05:02:43.966Z,82.79
2022-10-05T05:06:12.117Z,83.27
2022-10-05T05:09:16.966Z,83.25
2022-10-05T05:12:30.702Z,84.07
2022-10-05T05:15:43.007Z,84.96
2022-10-05T05:19:05.952Z,83.82
2022-10-05T05:21:53.891Z,83.48
2022-10-05T05:24:59.445Z,83.33
2022-10-05T05:28:11.730Z,83.16
2022-10-05T05:31:12.965Z,83.07
2022-10-05T05:33:58.605Z,83.88
2022-10-05T05:36:49.969Z,83.31
2022-10-05T05:40:07.450Z,84.54
2022-10-05T05:42:59.158Z,85.55
2022-10-05T05:45:44.071Z,85.27
2022-10-05T05:48:25.937Z,84.75
2022-10-05T05:51:03.151Z,84.58
2022-10-05T05:53:40.064Z,85.28
2022-10-05T05:56:21.571Z,85.43
2022-10-05T05:59:01.075Z,83.69
2022-10-05T06:01:43.580Z,82.99
2022-10-05T06:04:38.272Z,84.25
2022-10-05T06:07:09.658Z,84.03
2022-10-05T06:09:49.744Z,83.96
2022-10-05T06:12:27.823Z,84.09
2022-10-05T06:15:38.642Z,83.21
2022-10-05T06:18:15.482Z,83.60
2022-10-05T06:21:06.887Z,83.69
2022-10-05T06:24:15.864Z,84.39
2022-10-05T06:27:27.244Z,84.05
2022-10-05T06:30:17.170Z,83.44
2022-10-05T06:33:37.844Z,82.63
2022-10-05T06:36:50.268Z,82.21
2022-10-05T06:39:51.761Z,81.49
2022-10-05T06:42:55.665Z,80.71
2022-10-05T06:46:26.652Z,79.66
2022-10-05T06:49:24.388Z,81.43
2022-10-05T06:52:29.205Z,80.77
2022-10-05T06:55:59.981Z,81.54
2022-10-05T06:59:03.817Z,80.95
2022-10-05T07:02:05.128Z,81.74
2022-10-05T07:05:35.753Z,80.79
2022-10-05T07:08:47.100Z,80.64
2022-10-05T07:11:57.264Z,80.85
2022-10-05T07:14:58.924Z,80.38
2022-10-05T07:17:45.537Z,81.47
2022-10-05T07:20:16.973Z,80.28
2022-10-05T07:23:22.772Z,80.09
2022-10-05T07:26:09.515Z,79.04
2022-10-05T07:28:48.179Z,77.84
2022-10-05T07:32:01.053Z,78.55
2022-10-05T07:34:49.482Z,77.79
2022-10-05T07:37:58.201Z,76.92
2022-10-05T07:40:47.865Z,76.50
2022-10-05T07:44:02.082Z,75.59
2022-10-05T07:46:52.040Z,75.49
2022-10-05T07:49:35.612Z,75.93
2022-10-05T07:58:46.791Z,74.82
2022-10-05T08:01:37.370Z,75.17
2022-10-05T08:04:51.400Z,74.42
2022-10-05T08:07:18.628Z,73.93
2022-10-05T08:10:39.627Z,73.71
2022-10-05T08:13:53.140Z,74.15
2022-10-05T08:16:23.287Z,74.10
2022-10-05T08:19:18.063Z,73.43
2022-10-05T08:22:19.603Z,72.97
2022-10-05T08:25:34.164Z,73.45
2022-10-05T08:28:35.684Z,73.45
2022-10-05T08:31:40.918Z,72.64
2022-10-05T08:34:31.227Z,73.53
2022-10-05T08:37:35.226Z,73.11
2022-10-05T08:41:41.161Z,72.96
2022-10-05T08:44:36.366Z,73.31
2022-10-05T08:47:10.291Z,73.26
2022-10-05T08:50:23.627Z,72.17
2022-10-05T08:54:17.186Z,71.42
2022-10-05T08:57:28.981Z,71.71
2022-10-05T09:00:34.596Z,71.28
2022-10-05T09:03:48.770Z,70.70
2022-10-05T09:07:06.487Z,71.27
2022-10-05T09:13:58.922Z,70.29
2022-10-05T09:17:25.511Z,70.43
2022-10-05T09:20:00.398Z,70.39
2022-10-05T09:23:38.198Z,70.34
2022-10-05T09:27:11.900Z,70.90
2022-10-05T09:30:20.293Z,70.69
2022-10-05T09:33:38.194Z,70.63
2022-10-05T09:37:33.943Z,70.21
2022-10-05T09:40:41.729Z,69.50
2022-10-05T09:44:47.358Z,69.76
2022-10-05T09:48:21.816Z,69.05
2022-10-05T09:51:22.593Z,69.56
2022-10-05T09:54:47.463Z,69.08
2022-10-05T09:58:37.099Z,67.60
2022-10-05T10:01:33.632Z,68.07
2022-10-05T10:05:31.305Z,69.86
2022-10-05T10:08:28.458Z,69.08
2022-10-05T10:11:11.931Z,68.90
2022-10-05T10:14:34.365Z,68.80
2022-10-05T10:18:11.175Z,69.00
2022-10-05T10:20:58.299Z,67.92
2022-10-05T10:23:55.056Z,67.17
2022-10-05T10:27:09.798Z,67.09
2022-10-05T10:29:42.876Z,65.36
2022-10-05T10:33:16.719Z,64.99
2022-10-05T10:36:00.461Z,64.79
2022-10-05T10:39:02.735Z,63.74
2022-10-05T10:42:01.365Z,62.52
2022-10-05T10:45:38.178Z,62.94
2022-10-05T10:48:30.007Z,63.90
2022-10-05T10:52:13.672Z,63.05
2022-10-05T10:55:18.066Z,62.90
2022-10-05T10:58:42.500Z,62.08
2022-10-05T11:01:59.916Z,61.86
2022-10-05T11:04:54.755Z,60.91
2022-10-05T11:08:02.023Z,60.00
2022-10-05T11:10:58.853Z,58.26
2022-10-05T11:14:14.417Z,58.46
2022-10-05T11:17:31.698Z,57.12
2022-10-05T11:20:49.659Z,57.13
2022-10-05T11:24:29.869Z,56.65
2022-10-05T11:27:48.700Z,55.08
2022-10-05T11:31:11.171Z,55.72
2022-10-05T11:34:31.749Z,55.80
2022-10-05T11:37:41.663Z,55.76
2022-10-05T11:41:17.889Z,55.85
2022-10-05T11:44:07.224Z,55.31
2022-10-05T11:47:13.072Z,53.41
2022-10-05T11:50:32.443Z,55.68
2022-10-05T11:53:36.347Z,51.57
2022-10-05T11:57:02.732Z,53.58
2022-10-05T11:59:59.358Z,54.52
2022-10-05T12:03:16.808Z,57.83
2022-10-05T12:06:24.449Z,59.75
2022-10-05T12:09:29.737Z,60.12
2022-10-05T12:12:27.237Z,59.10
2022-10-05T12:15:47.176Z,58.53
2022-10-05T12:18:34.097Z,55.32
2022-10-05T12:21:52.184Z,55.73
2022-10-05T12:25:36.616Z,54.39
2022-10-05T12:28:19.190Z,55.02
2022-10-05T12:31:36.820Z,54.64
2022-10-05T12:35:43.971Z,56.48
2022-10-05T12:38:38.041Z,55.13
2022-10-05T12:41:24.746Z,54.63
2022-10-05T12:48:21.764Z,55.40
2022-10-05T12:51:22.986Z,55.20
2022-10-05T12:54:03.909Z,54.32
2022-10-05T12:57:07.538Z,55.71
2022-10-05T13:00:28.869Z,55.14
2022-10-05T13:03:26.899Z,53.96
2022-10-05T13:06:45.574Z,53.63
2022-10-05T13:10:02.828Z,53.73
2022-10-05T13:13:19.188Z,54.04
2022-10-05T13:16:01.787Z,52.77
2022-10-05T13:19:02.981Z,51.21
2022-10-05T13:22:08.605Z,50.10
2022-10-05T13:25:17.570Z,50.00
2022-10-05T13:28:22.364Z,49.57
2022-10-05T13:31:20.041Z,50.30
2022-10-05T13:34:46.714Z,48.73
2022-10-05T13:37:45.880Z,48.48
2022-10-05T13:40:57.777Z,50.18
2022-10-05T13:44:14.236Z,50.28
2022-10-05T13:47:06.930Z,50.08
2022-10-05T13:50:02.401Z,50.54
2022-10-05T13:53:21.833Z,49.51
2022-10-05T13:56:12.570Z,50.74
2022-10-05T13:58:54.723Z,51.59
2022-10-05T14:01:56.309Z,50.25
2022-10-05T14:04:42.232Z,48.70
2022-10-05T14:08:01.468Z,49.84
2022-10-05T14:10:47.550Z,49.99
2022-10-05T14:13:46.728Z,51.66
2022-10-05T14:16:13.660Z,52.23
2022-10-05T14:19:07.556Z,53.26
2022-10-05T14:21:53.876Z,52.24
2022-10-05T14:24:44.888Z,52.01
2022-10-05T14:27:28.073Z,51.46
2022-10-05T14:30:23.681Z,51.65
2022-10-05T14:33:17.643Z,51.50
2022-10-05T14:35:56.068Z,51.49
2022-10-05T14:38:58.006Z,52.36
2022-10-05T14:41:27.500Z,51.80
2022-10-05T14:44:15.503Z,50.96
2022-10-05T14:47:04.359Z,49.80
2022-10-05T14:49:37.019Z,50.51
2022-10-05T14:52:32.654Z,51.95
2022-10-05T14:55:37.317Z,51.64
2022-10-05T14:59:04.108Z,53.99
2022-10-05T15:01:40.287Z,53.42
2022-10-05T15:04:44.433Z,53.96
2022-10-05T15:07:38.869Z,54.01
2022-10-05T15:10:26.916Z,55.27
2022-10-05T15:13:11.487Z,56.35
2022-10-05T15:16:29.536Z,56.55
2022-10-05T15:19:31.185Z,57.49
2022-10-05T15:22:28.422Z,58.24
2022-10-05T15:25:14.597Z,58.05
2022-10-05T15:28:08.809Z,59.25
2022-10-05T15:30:47.821Z,59.53
2022-10-05T15:33:55.422Z,59.05
2022-10-05T15:36:35.622Z,58.50
2022-10-05T15:39:46.890Z,58.63
2022-10-05T15:42:33.251Z,59.29
2022-10-05T15:45:33.745Z,58.75
2022-10-05T15:48:06.375Z,58.43
2022-10-05T15:51:50.089Z,58.84
2022-10-05T15:55:07.927Z,60.05
2022-10-05T15:58:08.370Z,59.66
2022-10-05T16:00:51.794Z,60.01
2022-10-05T16:03:48.391Z,60.24
2022-10-05T16:07:10.016Z,60.57
2022-10-05T16:10:15.812Z,61.35
2022-10-05T16:13:27.041Z,60.83
2022-10-05T16:16:20.829Z,61.06
2022-10-05T16:19:18.438Z,61.91
2022-10-05T16:22:43.346Z,62.56
2022-10-05T16:25:36.351Z,62.96
2022-10-05T16:28:22.387Z,63.30
2022-10-05T16:31:47.100Z,62.88
2022-10-05T16:34:55.866Z,63.21
2022-10-05T16:38:12.849Z,63.38
2022-10-05T16:41:37.772Z,62.76
2022-10-05T16:44:29.930Z,63.83
2022-10-05T16:47:38.987Z,64.25
2022-10-05T16:50:43.057Z,64.69
2022-10-05T16:53:27.504Z,64.98
2022-10-05T16:56:07.563Z,64.65
2022-10-05T16:58:56.496Z,64.95
2022-10-05T17:02:16.315Z,64.86
2022-10-05T17:05:15.645Z,64.77
2022-10-05T17:08:17.950Z,65.25
2022-10-05T17:11:17.033Z,65.15
2022-10-05T17:14:20.473Z,66.30
2022-10-05T17:17:26.452Z,66.55
2022-10-05T17:20:23.560Z,66.12
2022-10-05T17:23:02.187Z,67.82
2022-10-05T17:25:45.845Z,67.03
2022-10-05T17:28:15.799Z,68.01
2022-10-05T17:31:17.490Z,67.75
2022-10-05T17:33:59.643Z,68.23
2022-10-05T17:37:27.565Z,68.60
2022-10-05T17:39:57.437Z,69.04
2022-10-05T17:42:46.508Z,68.01
2022-10-05T17:45:19.408Z,68.77
2022-10-05T17:48:11.725Z,70.21
2022-10-05T17:51:05.041Z,70.21
2022-10-05T17:54:02.579Z,70.35
2022-10-05T17:56:49.363Z,70.48
2022-10-05T17:59:55.599Z,71.11
2022-10-05T18:02:40.010Z,70.73
2022-10-05T18:05:12.703Z,72.40
2022-10-05T18:08:07.609Z,72.97
2022-10-05T18:10:39.004Z,73.31
2022-10-05T18:13:37.038Z,74.76
2022-10-05T18:16:04.588Z,73.78
2022-10-05T18:18:44.869Z,74.18
2022-10-05T18:21:17.114Z,74.28
2022-10-05T18:23:52.517Z,74.78
2022-10-05T18:26:46.528Z,74.99
2022-10-05T18:30:01.240Z,73.86
2022-10-05T18:33:19.252Z,74.04
2022-10-05T18:36:07.065Z,76.01
2022-10-05T18:38:45.296Z,75.53
2022-10-05T18:41:45.361Z,75.23
2022-10-05T18:44:12.076Z,75.49
2022-10-05T18:47:25.831Z,75.27
2022-10-05T18:50:33.654Z,75.05
2022-10-05T18:53:28.210Z,75.35
2022-10-05T18:56:48.557Z,75.38
2022-10-05T18:59:46.371Z,74.03
2022-10-05T19:02:34.971Z,76.21
2022-10-05T19:05:56.720Z,76.20
2022-10-05T19:09:22.368Z,76.62
2022-10-05T19:12:22.035Z,76.42
2022-10-05T19:15:12.039Z,76.59
2022-10-05T19:18:41.407Z,75.55
2022-10-05T19:21:42.442Z,75.35
2022-10-05T19:24:48.525Z,75.59
2022-10-05T19:28:06.897Z,74.95
2022-10-05T19:31:11.706Z,76.45
2022-10-05T19:34:34.390Z,75.55
2022-10-05T19:37:30.905Z,75.88
2022-10-05T19:40:18.390Z,76.40
2022-10-05T19:43:06.765Z,75.94
2022-10-05T19:45:54.772Z,75.90
2022-10-05T19:48:40.399Z,76.40
2022-10-05T19:51:36.909Z,76.45
2022-10-05T19:54:25.757Z,76.10
2022-10-05T19:56:54.843Z,76.77
2022-10-05T19:59:31.285Z,76.58
2022-10-05T20:01:59.489Z,76.53
2022-10-05T20:04:43.490Z,76.45
2022-10-05T20:07:21.457Z,76.46
2022-10-05T20:10:22.058Z,75.19
2022-10-05T20:13:00.007Z,76.94
2022-10-05T20:15:53.430Z,76.14
2022-10-05T20:19:02.402Z,75.91
2022-10-05T20:21:49.951Z,76.35
2022-10-05T20:24:26.432Z,76.98
2022-10-05T20:27:02.438Z,77.62
2022-10-05T20:29:35.693Z,76.77
2022-10-05T20:32:12.102Z,76.72
2022-10-05T20:34:46.907Z,76.68
2022-10-05T20:37:17.835Z,76.13
2022-10-05T20:39:45.397Z,76.80
2022-10-05T20:42:12.322Z,76.89
2022-10-05T20:44:39.558Z,76.45
2022-10-05T20:47:09.755Z,77.04
2022-10-05T20:49:40.960Z,75.82
2022-10-05T20:52:10.414Z,77.06
2022-10-05T20:54:39.269Z,76.27
2022-10-05T20:57:08.649Z,76.90
2022-10-05T20:59:37.246Z,76.40
2022-10-05T21:02:05.461Z,76.45
2022-10-05T21:04:40.191Z,75.61
2022-10-05T21:07:08.653Z,75.91
2022-10-05T21:09:38.250Z,76.10
2022-10-05T21:12:05.435Z,76.25
2022-10-05T21:14:34.268Z,75.98
2022-10-05T21:17:02.062Z,76.22
2022-10-05T21:19:29.614Z,76.04
2022-10-05T21:21:59.500Z,75.74
2022-10-05T21:24:26.560Z,75.65
2022-10-05T21:26:57.626Z,75.52
2022-10-05T21:29:24.689Z,75.55
2022-10-05T21:31:52.050Z,75.81
2022-10-05T21:34:19.242Z,76.12
2022-10-05T21:36:46.136Z,75.84
2022-10-05T21:39:13.224Z,77.06
2022-10-05T21:41:42.965Z,76.06
2022-10-05T21:44:10.076Z,76.48
2022-10-05T21:46:37.975Z,76.38
2022-10-05T21:49:07.344Z,76.64
2022-10-05T21:51:35.533Z,76.16
2022-10-05T21:54:11.221Z,76.76
2022-10-05T21:56:44.034Z,76.86
2022-10-05T21:59:15.408Z,76.80
2022-10-05T22:01:42.348Z,77.05
2022-10-05T22:04:09.614Z,76.02
2022-10-05T22:06:36.720Z,75.91
2022-10-05T22:09:06.085Z,76.05
2022-10-05T22:11:33.919Z,76.19
2022-10-05T22:14:03.726Z,76.35
2022-10-05T22:16:43.729Z,75.60
2022-10-05T22:19:19.222Z,76.24
2022-10-05T22:21:46.178Z,76.07
2022-10-05T22:24:13.137Z,75.99
2022-10-05T22:26:45.976Z,75.96
2022-10-05T22:29:14.617Z,76.40
2022-10-05T22:31:42.134Z,76.43
2022-10-05T22:34:09.086Z,76.60
2022-10-05T22:36:37.247Z,76.03
2022-10-05T22:39:04.548Z,76.14
2022-10-05T22:41:31.523Z,76.23
2022-10-05T22:43:58.645Z,76.12
2022-10-05T22:46:25.693Z,75.71
2022-10-05T22:48:52.705Z,76.20
2022-10-05T22:51:19.631Z,76.49
2022-10-05T22:53:46.554Z,75.65
2022-10-05T22:56:15.225Z,76.85
2022-10-05T22:58:43.275Z,76.43
2022-10-05T23:01:16.867Z,76.08
2022-10-05T23:03:45.308Z,75.40
2022-10-05T23:06:17.695Z,75.45
2022-10-05T23:08:46.013Z,75.85
2022-10-05T23:11:22.499Z,75.97
2022-10-05T23:13:52.240Z,76.23
2022-10-05T23:16:22.795Z,75.52
2022-10-05T23:18:52.198Z,76.46
2022-10-05T23:21:22.086Z,76.20
2022-10-05T23:23:53.603Z,76.67
2022-10-05T23:26:24.191Z,76.25
2022-10-05T23:28:51.483Z,76.72
2022-10-05T23:31:23.873Z,76.63
2022-10-05T23:33:52.601Z,77.30
2022-10-05T23:36:26.877Z,76.84
2022-10-05T23:38:54.435Z,77.27
2022-10-05T23:41:21.719Z,77.65
2022-10-05T23:43:48.794Z,77.16
2022-10-05T23:46:17.523Z,78.05
2022-10-05T23:48:44.626Z,77.97
2022-10-05T23:51:14.393Z,77.48
2022-10-05T23:53:41.350Z,78.10
2022-10-05T23:56:08.637Z,78.24
2022-10-05T23:58:35.556Z,78.44
